createdAt,value
2018-05-09T00:01:52.955Z,4.32
2018-05-09T00:04:20.496Z,4.55
2018-05-09T00:06:48.070Z,4.05
2018-05-09T00:09:15.830Z,4.03
2018-05-09T00:11:43.151Z,4.70
2018-05-09T00:14:10.715Z,4.20
2018-05-09T00:16:38.268Z,4.65
2018-05-09T00:19:06.576Z,4.80
2018-05-09T00:21:34.154Z,5.65
2018-05-09T00:24:01.665Z,4.30
2018-05-09T00:26:29.227Z,4.12
2018-05-09T00:28:57.554Z,4.20
2018-05-09T00:31:25.119Z,4.95
2018-05-09T00:33:52.679Z,3.92
2018-05-09T00:36:20.215Z,4.20
2018-05-09T00:38:48.513Z,4.28
2018-05-09T00:41:16.069Z,4.78
2018-05-09T00:43:43.630Z,5.00
2018-05-09T00:46:11.194Z,4.57
2018-05-09T00:48:38.758Z,4.20
2018-05-09T00:51:06.301Z,4.35
2018-05-09T00:53:33.835Z,5.35
2018-05-09T00:56:01.395Z,5.15
2018-05-09T00:58:28.935Z,4.28
2018-05-09T01:00:56.494Z,4.50
2018-05-09T01:03:24.058Z,3.62
2018-05-09T01:05:51.670Z,4.20
2018-05-09T01:08:19.255Z,4.87
2018-05-09T01:10:46.819Z,4.30
2018-05-09T01:13:15.126Z,4.03
2018-05-09T01:15:42.666Z,3.67
2018-05-09T01:18:10.217Z,4.95
2018-05-09T01:20:37.786Z,5.30
2018-05-09T01:23:05.315Z,4.18
2018-05-09T01:25:32.874Z,4.25
2018-05-09T01:28:00.434Z,4.80
2018-05-09T01:30:28.053Z,4.50
2018-05-09T01:32:56.369Z,5.47
2018-05-09T01:35:23.921Z,4.47
2018-05-09T01:37:51.463Z,3.95
2018-05-09T01:40:19.795Z,4.30
2018-05-09T01:42:47.321Z,4.22
2018-05-09T01:45:15.633Z,4.60
2018-05-09T01:47:43.171Z,4.97
2018-05-09T01:50:10.747Z,4.28
2018-05-09T01:52:38.311Z,5.43
2018-05-09T01:55:05.866Z,5.25
2018-05-09T01:57:33.402Z,5.20
2018-05-09T02:00:00.966Z,4.37
2018-05-09T02:02:29.270Z,5.30
2018-05-09T02:04:56.796Z,4.50
2018-05-09T02:07:24.397Z,5.50
2018-05-09T02:09:51.929Z,5.40
2018-05-09T02:12:19.492Z,5.10
2018-05-09T02:14:47.062Z,5.65
2018-05-09T02:17:14.607Z,5.07
2018-05-09T02:19:42.139Z,5.45
2018-05-09T02:22:09.670Z,5.78
2018-05-09T02:24:37.986Z,4.97
2018-05-09T02:27:05.579Z,5.43
2018-05-09T02:29:33.139Z,5.35
2018-05-09T02:32:00.796Z,4.85
2018-05-09T02:34:28.275Z,5.62
2018-05-09T02:36:55.813Z,5.03
2018-05-09T02:39:23.350Z,6.43
2018-05-09T02:41:50.907Z,6.65
2018-05-09T02:44:19.211Z,5.50
2018-05-09T02:46:46.734Z,5.50
2018-05-09T02:49:14.285Z,6.15
2018-05-09T02:51:41.857Z,5.75
2018-05-09T02:54:09.395Z,5.45
2018-05-09T02:56:37.210Z,5.72
2018-05-09T02:59:05.505Z,5.55
2018-05-09T03:01:33.045Z,6.00
2018-05-09T03:04:01.378Z,6.25
2018-05-09T03:06:28.901Z,5.72
2018-05-09T03:08:57.212Z,5.35
2018-05-09T03:11:24.775Z,5.25
2018-05-09T03:13:52.335Z,5.12
2018-05-09T03:16:19.895Z,5.22
2018-05-09T03:18:47.450Z,5.45
2018-05-09T03:21:14.977Z,5.90
2018-05-09T03:23:42.565Z,4.93
2018-05-09T03:26:10.866Z,5.45
2018-05-09T03:28:38.426Z,5.62
2018-05-09T03:31:05.973Z,6.15
2018-05-09T03:33:33.513Z,5.47
2018-05-09T03:36:01.037Z,6.40
2018-05-09T03:38:28.557Z,5.25
2018-05-09T03:40:56.859Z,6.37
2018-05-09T03:43:24.423Z,6.93
2018-05-09T03:45:52.099Z,5.37
2018-05-09T03:48:19.697Z,6.03
2018-05-09T03:50:47.274Z,5.43
2018-05-09T03:53:14.917Z,5.80
2018-05-09T03:55:43.210Z,6.40
2018-05-09T03:58:10.742Z,6.50
2018-05-09T04:00:38.346Z,5.55
2018-05-09T04:03:17.653Z,6.05
2018-05-09T04:05:57.014Z,5.60
2018-05-09T04:08:36.370Z,5.03
2018-05-09T04:11:04.675Z,6.12
2018-05-09T04:13:32.230Z,5.78
2018-05-09T04:15:59.766Z,5.82
2018-05-09T04:18:27.309Z,5.97
2018-05-09T04:20:54.867Z,6.10
2018-05-09T04:23:22.397Z,5.20
2018-05-09T04:25:49.951Z,6.78
2018-05-09T04:28:17.630Z,5.32
2018-05-09T04:30:45.110Z,5.95
2018-05-09T04:33:12.726Z,5.65
2018-05-09T04:35:41.105Z,6.32
2018-05-09T04:38:09.434Z,6.53
2018-05-09T04:40:36.965Z,6.72
2018-05-09T04:43:05.256Z,5.93
2018-05-09T04:45:32.860Z,6.32
2018-05-09T04:48:00.426Z,6.65
2018-05-09T04:50:27.973Z,6.70
2018-05-09T04:52:55.497Z,7.28
2018-05-09T04:55:23.854Z,6.10
2018-05-09T04:57:51.375Z,7.12
2018-05-09T05:00:18.911Z,8.40
2018-05-09T05:02:46.445Z,8.60
2018-05-09T05:05:14.006Z,8.35
2018-05-09T05:07:41.549Z,6.90
2018-05-09T05:10:09.077Z,7.30
2018-05-09T05:12:36.627Z,5.95
2018-05-09T05:15:04.970Z,6.12
2018-05-09T05:17:32.520Z,6.28
2018-05-09T05:20:00.142Z,5.18
2018-05-09T05:22:27.677Z,5.47
2018-05-09T05:24:55.237Z,5.20
2018-05-09T05:27:22.814Z,4.93
2018-05-09T05:29:50.341Z,4.70
2018-05-09T05:32:17.872Z,5.40
2018-05-09T05:34:45.407Z,5.20
2018-05-09T05:37:12.963Z,4.90
2018-05-09T05:39:40.504Z,5.10
2018-05-09T05:42:08.062Z,3.90
2018-05-09T05:44:35.606Z,4.30
2018-05-09T05:47:03.157Z,4.45
2018-05-09T05:49:30.734Z,4.22
2018-05-09T05:51:58.357Z,4.35
2018-05-09T05:54:25.842Z,4.10
2018-05-09T05:56:53.378Z,5.18
2018-05-09T05:59:20.914Z,5.30
2018-05-09T06:01:48.451Z,5.18
2018-05-09T06:04:15.993Z,4.60
2018-05-09T06:06:44.304Z,4.68
2018-05-09T06:09:11.832Z,4.70
2018-05-09T06:11:40.134Z,4.30
2018-05-09T06:14:07.674Z,4.97
2018-05-09T06:16:36.002Z,4.87
2018-05-09T06:19:03.529Z,6.28
2018-05-09T06:21:31.070Z,6.10
2018-05-09T06:23:58.647Z,5.95
2018-05-09T06:26:26.187Z,5.40
2018-05-09T06:28:53.722Z,5.50
2018-05-09T06:31:21.266Z,5.30
2018-05-09T06:33:48.990Z,4.18
2018-05-09T06:36:17.367Z,4.85
2018-05-09T06:38:44.897Z,4.25
2018-05-09T06:41:12.616Z,4.53
2018-05-09T06:43:41.060Z,4.28
2018-05-09T06:46:10.066Z,4.68
2018-05-09T06:48:39.382Z,5.10
2018-05-09T06:51:07.266Z,4.15
2018-05-09T06:53:34.831Z,4.85
2018-05-09T06:56:03.145Z,3.72
2018-05-09T06:58:30.710Z,4.10
2018-05-09T07:00:58.294Z,4.10
2018-05-09T07:03:25.864Z,3.90
2018-05-09T07:05:53.414Z,3.92
2018-05-09T07:08:20.951Z,3.92
2018-05-09T07:10:48.491Z,4.47
2018-05-09T07:13:16.054Z,4.00
2018-05-09T07:15:44.396Z,4.47
2018-05-09T07:18:12.008Z,4.32
2018-05-09T07:20:40.329Z,4.20
2018-05-09T07:23:07.979Z,3.80
2018-05-09T07:25:35.449Z,3.67
2018-05-09T07:28:02.987Z,4.10
2018-05-09T07:30:31.288Z,3.95
2018-05-09T07:32:58.821Z,3.85
2018-05-09T07:35:26.418Z,3.67
2018-05-09T07:37:53.973Z,4.40
2018-05-09T07:40:21.525Z,4.40
2018-05-09T07:42:49.851Z,4.10
2018-05-09T07:45:17.406Z,4.07
2018-05-09T07:47:45.045Z,4.90
2018-05-09T07:50:12.532Z,4.85
2018-05-09T07:52:40.205Z,4.80
2018-05-09T07:55:07.832Z,4.70
2018-05-09T07:57:36.184Z,4.70
2018-05-09T08:00:03.750Z,5.55
2018-05-09T08:02:31.319Z,5.37
2018-05-09T08:04:58.868Z,5.37
2018-05-09T08:07:26.438Z,5.30
2018-05-09T08:09:54.071Z,5.15
2018-05-09T08:12:21.622Z,5.97
2018-05-09T08:14:49.173Z,4.90
2018-05-09T08:17:17.478Z,5.80
2018-05-09T08:19:45.030Z,5.57
2018-05-09T08:22:12.616Z,5.03
2018-05-09T08:24:40.155Z,5.22
2018-05-09T08:27:07.726Z,4.78
2018-05-09T08:29:35.299Z,5.10
2018-05-09T08:32:02.840Z,4.60
2018-05-09T08:34:30.436Z,5.20
2018-05-09T08:36:57.969Z,5.37
2018-05-09T08:39:26.277Z,5.25
2018-05-09T08:41:53.836Z,4.78
2018-05-09T08:44:21.377Z,5.12
2018-05-09T08:46:49.696Z,5.80
2018-05-09T08:49:17.336Z,5.25
2018-05-09T08:51:44.834Z,5.40
2018-05-09T08:54:12.461Z,5.12
2018-05-09T08:56:40.007Z,5.43
2018-05-09T08:59:08.420Z,5.25
2018-05-09T09:01:35.988Z,4.20
2018-05-09T09:04:03.588Z,4.05
2018-05-09T09:06:31.257Z,4.80
2018-05-09T09:09:00.007Z,3.67
2018-05-09T09:11:27.561Z,3.80
2018-05-09T09:13:55.112Z,4.00
2018-05-09T09:16:22.744Z,3.62
2018-05-09T09:18:50.423Z,3.47
2018-05-09T09:21:18.746Z,3.90
2018-05-09T09:23:46.326Z,4.00
2018-05-09T09:26:13.874Z,4.00
2018-05-09T09:28:41.499Z,3.20
2018-05-09T09:31:09.025Z,3.90
2018-05-09T09:33:36.570Z,6.50
2018-05-09T09:36:04.143Z,3.40
2018-05-09T09:38:31.692Z,3.40
2018-05-09T09:40:59.250Z,3.07
2018-05-09T09:43:26.787Z,3.80
2018-05-09T09:45:54.351Z,4.10
2018-05-09T09:48:22.686Z,3.40
2018-05-09T09:50:50.249Z,2.97
2018-05-09T09:53:17.818Z,3.23
2018-05-09T09:55:45.345Z,3.13
2018-05-09T09:58:13.637Z,3.57
2018-05-09T10:00:41.194Z,3.70
2018-05-09T10:03:08.798Z,3.17
2018-05-09T10:05:36.350Z,3.60
2018-05-09T10:08:04.017Z,3.80
2018-05-09T10:10:31.480Z,3.70
2018-05-09T10:12:59.043Z,3.90
2018-05-09T10:15:26.610Z,3.10
2018-05-09T10:17:54.137Z,3.63
2018-05-09T10:20:21.703Z,3.53
2018-05-09T10:22:49.273Z,4.00
2018-05-09T10:25:16.835Z,3.50
2018-05-09T10:27:44.383Z,4.57
2018-05-09T10:30:12.685Z,4.35
2018-05-09T10:32:40.262Z,3.97
2018-05-09T10:35:07.832Z,4.00
2018-05-09T10:37:35.379Z,4.18
2018-05-09T10:40:02.932Z,4.03
2018-05-09T10:42:30.478Z,3.50
2018-05-09T10:44:58.026Z,3.70
2018-05-09T10:47:25.607Z,4.13
2018-05-09T10:49:53.940Z,4.00
2018-05-09T10:52:21.525Z,3.90
2018-05-09T10:54:49.099Z,4.53
2018-05-09T10:57:16.644Z,4.27
2018-05-09T10:59:44.205Z,4.37
2018-05-09T11:02:11.815Z,4.17
2018-05-09T11:04:40.123Z,4.87
2018-05-09T11:07:07.709Z,5.10
2018-05-09T11:09:35.259Z,4.77
2018-05-09T11:12:02.809Z,4.60
2018-05-09T11:14:30.411Z,4.47
2018-05-09T11:16:57.959Z,4.40
2018-05-09T11:19:25.517Z,4.60
2018-05-09T11:21:53.051Z,4.43
2018-05-09T11:24:21.416Z,4.60
2018-05-09T11:26:48.934Z,4.60
2018-05-09T11:29:16.475Z,4.47
2018-05-09T11:31:44.030Z,4.50
2018-05-09T11:34:12.330Z,4.27
2018-05-09T11:36:39.857Z,5.03
2018-05-09T11:39:07.429Z,5.13
2018-05-09T11:41:35.799Z,5.30
2018-05-09T11:44:03.338Z,5.03
2018-05-09T11:46:30.877Z,4.70
2018-05-09T11:48:58.449Z,5.47
2018-05-09T11:51:26.038Z,5.83
2018-05-09T11:53:53.604Z,5.00
2018-05-09T11:56:21.142Z,4.87
2018-05-09T11:58:48.856Z,4.50
2018-05-09T12:01:17.195Z,5.13
2018-05-09T12:03:44.757Z,5.00
2018-05-09T12:06:12.289Z,4.80
2018-05-09T12:08:40.593Z,5.10
2018-05-09T12:11:08.262Z,5.83
2018-05-09T12:13:35.803Z,5.30
2018-05-09T12:16:04.145Z,5.57
2018-05-09T12:18:31.694Z,5.37
2018-05-09T12:20:59.235Z,4.73
2018-05-09T12:23:26.799Z,4.97
2018-05-09T12:25:54.379Z,5.10
2018-05-09T12:28:21.914Z,5.20
2018-05-09T12:30:49.465Z,5.40
2018-05-09T12:33:17.010Z,5.10
2018-05-09T12:35:45.330Z,5.60
2018-05-09T12:38:12.907Z,5.60
2018-05-09T12:40:40.470Z,5.70
2018-05-09T12:43:08.023Z,5.82
2018-05-09T12:45:35.610Z,6.50
2018-05-09T12:48:03.178Z,6.60
2018-05-09T12:50:30.718Z,7.07
2018-05-09T12:52:58.286Z,6.75
2018-05-09T12:55:25.834Z,6.68
2018-05-09T12:57:53.407Z,7.10
2018-05-09T13:00:21.061Z,6.30
2018-05-09T13:02:48.550Z,6.25
2018-05-09T13:05:16.098Z,6.50
2018-05-09T13:07:43.676Z,6.75
2018-05-09T13:10:11.232Z,6.00
2018-05-09T13:12:38.827Z,6.50
2018-05-09T13:15:06.442Z,6.80
2018-05-09T13:17:34.031Z,6.77
2018-05-09T13:20:01.593Z,7.28
2018-05-09T13:22:29.149Z,6.07
2018-05-09T13:24:56.715Z,6.13
2018-05-09T13:27:24.269Z,4.73
2018-05-09T13:29:51.847Z,5.60
2018-05-09T13:32:19.387Z,5.13
2018-05-09T13:34:48.110Z,5.33
2018-05-09T13:37:15.771Z,5.37
2018-05-09T13:39:43.310Z,5.27
2018-05-09T13:42:10.886Z,5.60
2018-05-09T13:44:38.734Z,5.20
2018-05-09T13:47:06.336Z,5.85
2018-05-09T13:49:33.906Z,5.05
2018-05-09T13:52:01.475Z,5.60
2018-05-09T13:54:29.017Z,5.80
2018-05-09T13:56:56.549Z,5.53
2018-05-09T13:59:24.850Z,5.97
2018-05-09T14:01:52.401Z,5.20
2018-05-09T14:04:20.742Z,5.50
2018-05-09T14:06:48.293Z,5.20
2018-05-09T14:09:16.167Z,5.90
2018-05-09T14:11:43.715Z,5.15
2018-05-09T14:14:11.263Z,6.05
2018-05-09T14:16:38.863Z,5.30
2018-05-09T14:19:06.401Z,5.57
2018-05-09T14:21:33.956Z,5.30
2018-05-09T14:24:01.508Z,4.60
2018-05-09T14:26:29.055Z,4.80
2018-05-09T14:28:57.394Z,4.75
2018-05-09T14:31:24.943Z,4.82
2018-05-09T14:33:52.493Z,4.77
2018-05-09T14:36:20.068Z,5.78
2018-05-09T14:38:47.629Z,4.40
2018-05-09T14:41:15.206Z,5.05
2018-05-09T14:43:42.745Z,4.95
2018-05-09T14:46:10.319Z,4.80
2018-05-09T14:48:37.880Z,5.00
2018-05-09T14:51:05.450Z,4.80
2018-05-09T14:53:33.006Z,4.68
2018-05-09T14:56:00.542Z,5.22
2018-05-09T14:58:28.869Z,5.12
2018-05-09T15:00:56.439Z,5.70
2018-05-09T15:03:24.005Z,5.12
2018-05-09T15:05:51.583Z,5.12
2018-05-09T15:08:19.150Z,5.25
2018-05-09T15:10:46.704Z,4.60
2018-05-09T15:13:14.260Z,6.10
2018-05-09T15:15:41.809Z,6.25
2018-05-09T15:18:09.374Z,5.62
2018-05-09T15:20:37.560Z,5.27
2018-05-09T15:23:05.138Z,4.97
2018-05-09T15:25:32.791Z,5.65
2018-05-09T15:28:00.303Z,5.50
2018-05-09T15:30:28.624Z,5.97
2018-05-09T15:32:56.240Z,5.62
2018-05-09T15:35:23.763Z,5.50
2018-05-09T15:37:51.327Z,5.85
2018-05-09T15:40:18.874Z,6.15
2018-05-09T15:42:46.463Z,5.95
2018-05-09T15:45:14.006Z,4.97
2018-05-09T15:47:41.562Z,5.55
2018-05-09T15:50:09.149Z,5.83
2018-05-09T15:52:38.337Z,6.00
2018-05-09T15:55:05.939Z,6.73
2018-05-09T15:57:33.474Z,5.40
2018-05-09T16:00:01.026Z,5.97
2018-05-09T16:02:28.567Z,6.80
2018-05-09T16:04:56.874Z,5.97
2018-05-09T16:07:24.454Z,5.60
2018-05-09T16:09:52.067Z,6.20
2018-05-09T16:12:23.198Z,5.63
2018-05-09T16:14:50.750Z,5.50
2018-05-09T16:17:18.319Z,6.43
2018-05-09T16:19:45.953Z,7.00
2018-05-09T16:22:14.300Z,5.63
2018-05-09T16:24:42.762Z,5.80
2018-05-09T16:27:10.322Z,5.23
2018-05-09T16:29:37.872Z,5.60
2018-05-09T16:32:05.433Z,6.20
2018-05-09T16:34:32.986Z,6.25
2018-05-09T16:37:00.535Z,5.53
2018-05-09T16:39:28.070Z,5.30
2018-05-09T16:41:56.399Z,6.00
2018-05-09T16:44:23.933Z,6.10
2018-05-09T16:46:51.495Z,5.18
2018-05-09T16:49:19.080Z,5.75
2018-05-09T16:51:46.621Z,5.55
2018-05-09T16:54:14.190Z,5.65
2018-05-09T16:56:41.775Z,6.40
2018-05-09T16:59:09.318Z,6.47
2018-05-09T17:01:36.911Z,7.03
2018-05-09T17:04:04.458Z,5.97
2018-05-09T17:06:32.038Z,5.97
2018-05-09T17:08:59.577Z,6.25
2018-05-09T17:11:27.145Z,5.90
2018-05-09T17:13:54.697Z,6.95
2018-05-09T17:16:23.017Z,6.65
2018-05-09T17:18:50.557Z,7.50
2018-05-09T17:21:35.015Z,7.25
2018-05-09T17:24:02.567Z,6.93
2018-05-09T17:26:30.108Z,7.40
2018-05-09T17:28:58.433Z,8.35
2018-05-09T17:31:26.352Z,7.80
2018-05-09T17:33:54.671Z,7.32
2018-05-09T17:36:22.225Z,8.02
2018-05-09T17:38:49.815Z,7.68
2018-05-09T17:41:17.373Z,7.93
2018-05-09T17:43:44.901Z,8.57
2018-05-09T17:46:13.203Z,8.70
2018-05-09T17:48:40.750Z,7.28
2018-05-09T17:51:09.074Z,8.25
2018-05-09T17:53:36.632Z,7.68
2018-05-09T17:56:04.188Z,7.97
2018-05-09T17:58:31.740Z,7.18
2018-05-09T18:00:59.328Z,7.65
2018-05-09T18:03:26.878Z,6.55
2018-05-09T18:05:54.482Z,7.10
2018-05-09T18:08:22.051Z,5.70
2018-05-09T18:10:49.602Z,6.53
2018-05-09T18:13:17.146Z,6.35
2018-05-09T18:15:44.706Z,6.37
2018-05-09T18:18:12.254Z,6.45
2018-05-09T18:20:39.780Z,5.93
2018-05-09T18:23:07.398Z,6.72
2018-05-09T18:25:34.967Z,6.32
2018-05-09T18:28:02.501Z,5.40
2018-05-09T18:30:30.797Z,6.30
2018-05-09T18:32:58.340Z,6.32
2018-05-09T18:35:26.652Z,5.35
2018-05-09T18:37:54.212Z,5.72
2018-05-09T18:40:21.807Z,7.30
2018-05-09T18:42:49.355Z,7.03
2018-05-09T18:45:16.959Z,6.28
2018-05-09T18:47:44.524Z,5.85
2018-05-09T18:50:12.068Z,6.05
2018-05-09T18:52:39.610Z,6.60
2018-05-09T18:55:07.146Z,6.00
2018-05-09T18:57:34.683Z,5.90
2018-05-09T19:00:02.365Z,6.37
2018-05-09T19:02:30.665Z,5.22
2018-05-09T19:04:58.264Z,5.40
2018-05-09T19:07:25.836Z,5.35
2018-05-09T19:09:53.402Z,5.28
2018-05-09T19:12:20.968Z,5.62
2018-05-09T19:14:48.532Z,4.90
2018-05-09T19:17:16.085Z,4.82
2018-05-09T19:19:43.734Z,5.10
2018-05-09T19:22:11.301Z,4.95
2018-05-09T19:24:38.855Z,4.82
2018-05-09T19:27:06.426Z,5.22
2018-05-09T19:29:33.967Z,4.60
2018-05-09T19:32:01.547Z,4.05
2018-05-09T19:34:29.089Z,4.47
2018-05-09T19:36:56.932Z,4.40
2018-05-09T19:39:24.496Z,4.22
2018-05-09T19:41:52.110Z,3.83
2018-05-09T19:44:20.696Z,4.55
2018-05-09T19:46:48.299Z,4.10
2018-05-09T19:49:16.070Z,4.55
2018-05-09T19:51:44.670Z,4.50
2018-05-09T19:54:12.559Z,4.32
2018-05-09T19:56:40.141Z,4.35
2018-05-09T19:59:08.018Z,4.40
2018-05-09T20:01:35.587Z,4.72
2018-05-09T20:04:03.155Z,4.07
2018-05-09T20:06:30.723Z,4.47
2018-05-09T20:08:58.257Z,5.00
2018-05-09T20:11:26.604Z,4.25
2018-05-09T20:13:54.221Z,4.40
2018-05-09T20:16:22.547Z,4.70
2018-05-09T20:18:50.881Z,3.87
2018-05-09T20:21:18.447Z,4.57
2018-05-09T20:23:46.035Z,4.10
2018-05-09T20:26:13.649Z,3.80
2018-05-09T20:28:46.870Z,4.07
2018-05-09T20:31:32.140Z,3.95
2018-05-09T20:33:59.672Z,3.90
2018-05-09T20:36:27.216Z,4.00
2018-05-09T20:38:54.760Z,4.30
2018-05-09T20:41:22.288Z,4.37
2018-05-09T20:43:49.837Z,3.97
2018-05-09T20:46:18.215Z,5.20
2018-05-09T20:48:46.554Z,4.57
2018-05-09T20:51:14.132Z,4.25
2018-05-09T20:53:41.677Z,4.75
2018-05-09T20:56:09.228Z,4.70
2018-05-09T20:58:36.813Z,5.15
2018-05-09T21:01:16.074Z,3.95
2018-05-09T21:03:43.666Z,4.93
2018-05-09T21:06:11.995Z,5.25
2018-05-09T21:08:39.579Z,5.45
2018-05-09T21:11:07.158Z,5.70
2018-05-09T21:13:34.711Z,5.05
2018-05-09T21:16:02.271Z,4.95
2018-05-09T21:18:29.834Z,5.47
2018-05-09T21:20:57.404Z,5.57
2018-05-09T21:23:24.986Z,5.45
2018-05-09T21:25:53.315Z,5.90
2018-05-09T21:28:20.857Z,4.95
2018-05-09T21:30:48.431Z,4.70
2018-05-09T21:33:16.013Z,5.20
2018-05-09T21:35:43.545Z,5.30
2018-05-09T21:38:11.094Z,5.30
2018-05-09T21:40:39.413Z,4.53
2018-05-09T21:43:06.983Z,4.78
2018-05-09T21:45:34.583Z,4.93
2018-05-09T21:48:02.146Z,4.82
2018-05-09T21:50:29.708Z,5.32
2018-05-09T21:52:57.312Z,5.20
2018-05-09T21:55:24.873Z,7.70
2018-05-09T21:57:52.419Z,6.45
2018-05-09T22:00:20.743Z,5.93
2018-05-09T22:02:48.315Z,5.00
2018-05-09T22:05:15.858Z,6.12
2018-05-09T22:07:43.410Z,6.12
2018-05-09T22:10:10.975Z,6.00
2018-05-09T22:12:38.542Z,6.00
2018-05-09T22:15:06.111Z,6.45
2018-05-09T22:17:33.693Z,6.87
2018-05-09T22:20:01.220Z,6.72
2018-05-09T22:22:29.590Z,5.30
2018-05-09T22:24:57.894Z,7.12
2018-05-09T22:27:25.609Z,7.80
2018-05-09T22:29:53.545Z,6.50
2018-05-09T22:32:21.285Z,6.90
2018-05-09T22:34:49.589Z,6.35
2018-05-09T22:37:17.206Z,5.47
2018-05-09T22:39:44.746Z,6.30
2018-05-09T22:42:12.431Z,4.68
2018-05-09T22:44:39.998Z,4.78
2018-05-09T22:47:07.530Z,4.85
2018-05-09T22:49:35.071Z,5.28
2018-05-09T22:52:02.630Z,4.25
2018-05-09T22:54:30.954Z,4.35
2018-05-09T22:56:58.501Z,4.93
2018-05-09T22:59:26.063Z,4.30
2018-05-09T23:01:53.623Z,4.25
2018-05-09T23:04:21.163Z,4.22
2018-05-09T23:06:49.467Z,5.95
2018-05-09T23:09:17.003Z,5.80
2018-05-09T23:11:45.326Z,5.60
2018-05-09T23:14:12.857Z,5.62
2018-05-09T23:16:41.182Z,5.22
2018-05-09T23:19:08.714Z,8.43
2018-05-09T23:21:36.245Z,7.68
2018-05-09T23:24:03.835Z,6.45
2018-05-09T23:26:31.374Z,6.78
2018-05-09T23:28:58.938Z,5.75
2018-05-09T23:31:26.522Z,5.75
2018-05-09T23:33:54.813Z,6.68
2018-05-09T23:36:22.337Z,6.25
2018-05-09T23:38:49.951Z,5.37
2018-05-09T23:41:17.523Z,6.15
2018-05-09T23:43:45.077Z,6.35
2018-05-09T23:46:12.623Z,5.85
2018-05-09T23:48:40.987Z,6.65
2018-05-09T23:51:08.538Z,4.95
2018-05-09T23:53:36.113Z,5.05
2018-05-09T23:56:03.661Z,5.35
2018-05-09T23:58:31.212Z,6.12
